You are not logged in, Click here to log in
廊曼國際機場DMK / VTBD 泰國曼谷
ICAO: VTBD Country: 泰國曼谷
Latitude: 13.9133 Longitude: 100.604
Total Arrivals: 7 Total Departures: 8
Latest Arrival: SL177 (VVTS-VTBD)CHU. CHUHAO Latest Departure: FD120A (VTBD-VECC) Nick. Liu
Scenery:
METAR : VTBD 110400Z 27009KT 240V300 9999 FEW020 33/24 Q1008 NOSIG

廊曼國際機場DMK

You are accessing this site from IP address 34.229.119.29. Virtual Airline. CMS by phpVMS.Website designed by Zumeweb and edited by Theo Bearman.
There is 1 User(s) Online: | Lun Wang | and 24 Guest(s) Online.
All information on this site is for fight simulation purposes only. This site is for flight logging for pilots of Virtual Airline&模擬飛行論壇 FlySim only.